createdAt,value
2022-12-09T11:26:47.108Z,97148.00
2022-12-09T11:29:19.537Z,97104.00
2022-12-09T11:31:48.221Z,97130.00
2022-12-09T11:34:18.968Z,97102.00
2022-12-09T11:36:50.519Z,97171.00
2022-12-09T11:39:27.078Z,97166.00
2022-12-09T11:42:18.784Z,97157.00
2022-12-09T11:44:53.541Z,97127.00
2022-12-09T11:47:23.329Z,97162.00
2022-12-09T11:49:52.453Z,97146.00
2022-12-09T12:07:30.892Z,97118.00
2022-12-09T12:10:00.413Z,97149.00
2022-12-09T12:16:39.935Z,97147.00
2022-12-09T12:23:07.535Z,97062.00
2022-12-09T12:25:43.392Z,97124.00
2022-12-09T12:28:39.363Z,97122.00
2022-12-09T12:31:12.600Z,97115.00
2022-12-09T12:45:19.078Z,97117.00
2022-12-09T12:47:48.982Z,97101.00
2022-12-09T13:23:56.259Z,97018.00
2022-12-09T13:26:28.794Z,97090.00
2022-12-09T13:29:00.084Z,97000.00
2022-12-09T13:31:30.529Z,97103.00
2022-12-09T13:34:08.472Z,97095.00
2022-12-09T13:36:41.749Z,97011.00
2022-12-09T13:39:12.284Z,97038.00
2022-12-09T13:42:02.037Z,97021.00
2022-12-09T13:44:36.079Z,97093.00
2022-12-09T13:47:26.927Z,97072.00
2022-12-09T13:50:05.138Z,97087.00
2022-12-09T13:52:44.312Z,97024.00
2022-12-09T13:55:41.152Z,97085.00
2022-12-09T13:58:33.568Z,97084.00
2022-12-09T14:01:15.064Z,97067.00
2022-12-09T14:03:50.246Z,97072.00
2022-12-09T14:06:23.653Z,97117.00
2022-12-09T14:08:54.887Z,97093.00
2022-12-09T14:11:42.088Z,97058.00
2022-12-09T14:14:48.661Z,97074.00
2022-12-09T14:17:39.874Z,97079.00
2022-12-09T14:20:18.688Z,97073.00
2022-12-09T14:23:05.842Z,97064.00
2022-12-09T14:26:05.723Z,97061.00
2022-12-09T14:28:59.129Z,97045.00
2022-12-09T14:31:47.960Z,97069.00
2022-12-09T14:34:25.642Z,97090.00
2022-12-09T14:36:57.611Z,97031.00
2022-12-09T14:39:28.461Z,97025.00
2022-12-09T14:41:59.915Z,97038.00
2022-12-09T14:44:37.438Z,97083.00
2022-12-09T14:47:15.501Z,97099.00
2022-12-09T14:49:49.195Z,97013.00
2022-12-09T14:52:22.356Z,97099.00
2022-12-09T14:54:50.559Z,97086.00
2022-12-09T14:57:22.495Z,97103.00
2022-12-09T14:59:51.322Z,97063.00
2022-12-09T15:02:21.310Z,97086.00
2022-12-09T15:04:50.070Z,97090.00
2022-12-09T15:07:20.385Z,97088.00
2022-12-09T15:09:53.412Z,97128.00
2022-12-09T15:12:25.085Z,97059.00
2022-12-09T15:14:56.975Z,97109.00
2022-12-09T15:17:28.670Z,97112.00
2022-12-09T15:20:01.096Z,97106.00
2022-12-09T15:22:34.054Z,97069.00
2022-12-09T15:25:04.538Z,97081.00
2022-12-09T15:27:34.306Z,97086.00
2022-12-09T15:30:02.575Z,97090.00
2022-12-09T15:32:31.054Z,97105.00
2022-12-09T15:35:17.949Z,97097.00
2022-12-09T15:37:46.845Z,97090.00
2022-12-09T15:40:16.801Z,97106.00
2022-12-09T15:42:48.300Z,97096.00
2022-12-09T15:45:17.501Z,97095.00
2022-12-09T15:47:47.007Z,97124.00
2022-12-09T15:50:18.374Z,97107.00
2022-12-09T15:52:50.723Z,97094.00
2022-12-09T15:55:20.950Z,97122.00
2022-12-09T15:57:50.694Z,97063.00
2022-12-09T16:00:19.568Z,97082.00
2022-12-09T16:02:47.663Z,97042.00
2022-12-09T16:05:21.631Z,97117.00
2022-12-09T16:07:57.267Z,97059.00
2022-12-09T16:10:27.011Z,97109.00
2022-12-09T16:13:11.074Z,97099.00
2022-12-09T16:15:47.470Z,97113.00
2022-12-09T16:18:20.000Z,97045.00
2022-12-09T16:21:13.348Z,97081.00
2022-12-09T16:23:41.745Z,97113.00
2022-12-09T16:26:18.189Z,97114.00
2022-12-09T18:14:43.378Z,97154.00
2022-12-09T18:17:11.805Z,97194.00
2022-12-09T18:19:40.246Z,97166.00
2022-12-09T18:22:10.541Z,97168.00
2022-12-09T18:24:39.605Z,97131.00
2022-12-09T18:27:08.046Z,97157.00
2022-12-09T18:29:37.412Z,97225.00
2022-12-09T18:32:07.396Z,97170.00
2022-12-09T18:34:36.268Z,97141.00
2022-12-09T18:37:05.003Z,97180.00
2022-12-09T18:39:33.566Z,97167.00
2022-12-09T18:42:03.482Z,97197.00
2022-12-09T18:44:31.727Z,97171.00
2022-12-09T18:47:01.366Z,97152.00
2022-12-09T18:49:32.253Z,97208.00
2022-12-09T18:52:00.544Z,97198.00
2022-12-09T18:54:31.228Z,97187.00
2022-12-09T18:57:01.897Z,97179.00
2022-12-09T18:59:31.375Z,97199.00
2022-12-09T19:01:59.784Z,97216.00
2022-12-09T19:04:29.058Z,97170.00
2022-12-09T19:07:00.250Z,97130.00
2022-12-09T19:09:31.929Z,97191.00
2022-12-09T19:12:16.591Z,97179.00
2022-12-09T19:14:48.178Z,97103.00
2022-12-09T19:17:16.441Z,97149.00
2022-12-09T19:19:45.348Z,97219.00
2022-12-09T19:22:15.189Z,97222.00
2022-12-09T19:24:44.405Z,97099.00
2022-12-09T19:27:13.465Z,97197.00
2022-12-09T19:29:41.626Z,97106.00
2022-12-09T19:32:29.322Z,97224.00
2022-12-09T19:34:58.122Z,97187.00
2022-12-09T19:37:28.384Z,97195.00
2022-12-09T19:39:56.735Z,97225.00
2022-12-09T19:42:25.865Z,97188.00
2022-12-09T19:45:03.035Z,97191.00
2022-12-09T19:47:33.125Z,97109.00
2022-12-09T19:50:01.606Z,97214.00
2022-12-09T19:52:31.383Z,97167.00
2022-12-09T19:54:59.618Z,97203.00
2022-12-09T19:57:27.958Z,97197.00
2022-12-09T19:59:56.292Z,97191.00
2022-12-09T20:02:24.638Z,97214.00
2022-12-09T20:04:52.975Z,97209.00
2022-12-09T20:07:21.159Z,97158.00
2022-12-09T20:09:52.056Z,97155.00
2022-12-09T20:12:20.160Z,97224.00
2022-12-09T20:14:48.546Z,97187.00
2022-12-09T20:17:17.501Z,97224.00
2022-12-09T20:19:45.602Z,97228.00
2022-12-09T20:22:13.770Z,97230.00
2022-12-09T20:24:43.268Z,97163.00
2022-12-09T20:27:12.918Z,97192.00
2022-12-09T20:29:41.268Z,97184.00
2022-12-09T20:32:10.387Z,97214.00
2022-12-09T20:34:38.870Z,97155.00
2022-12-09T20:37:07.527Z,97243.00
2022-12-09T20:39:38.611Z,97197.00
2022-12-09T20:42:06.875Z,97275.00
2022-12-09T20:44:36.512Z,97263.00
2022-12-09T20:47:04.771Z,97237.00
2022-12-09T20:49:33.052Z,97216.00
2022-12-09T20:52:01.303Z,97247.00
2022-12-09T20:54:29.478Z,97246.00
2022-12-09T20:56:57.641Z,97190.00
2022-12-09T20:59:25.769Z,97198.00
2022-12-09T21:01:56.172Z,97256.00
2022-12-09T21:04:24.307Z,97219.00
2022-12-09T21:06:52.539Z,97292.00
2022-12-09T21:09:22.305Z,97257.00
2022-12-09T21:11:51.330Z,97249.00
2022-12-09T21:14:19.511Z,97205.00
2022-12-09T21:16:50.421Z,97248.00
2022-12-09T21:19:24.689Z,97188.00
2022-12-09T21:21:52.977Z,97242.00
2022-12-09T21:24:24.689Z,97267.00
2022-12-09T21:26:55.581Z,97200.00
2022-12-09T21:29:29.816Z,97248.00
2022-12-09T21:32:00.386Z,97236.00
2022-12-09T21:34:30.070Z,97265.00
2022-12-09T21:36:58.315Z,97247.00
2022-12-09T21:39:27.624Z,97206.00
2022-12-09T21:41:55.792Z,97238.00
2022-12-09T21:44:25.559Z,97243.00
2022-12-09T21:46:54.486Z,97240.00
2022-12-09T21:49:22.722Z,97266.00
2022-12-09T21:51:53.185Z,97261.00
2022-12-09T21:54:21.310Z,97272.00
2022-12-09T21:56:49.479Z,97208.00
2022-12-09T21:59:17.610Z,97214.00
2022-12-09T22:01:45.768Z,97209.00
2022-12-09T22:04:16.233Z,97249.00
2022-12-09T22:06:46.126Z,97286.00
2022-12-09T22:09:16.018Z,97230.00
2022-12-09T22:11:44.622Z,97240.00
2022-12-09T22:14:12.917Z,97254.00
2022-12-09T22:16:42.182Z,97266.00
2022-12-09T22:19:13.055Z,97260.00
2022-12-09T22:21:41.361Z,97228.00
2022-12-09T22:24:10.078Z,97235.00
2022-12-09T22:26:40.042Z,97279.00
2022-12-09T22:29:08.244Z,97273.00
2022-12-09T22:31:37.432Z,97272.00
2022-12-09T22:34:06.842Z,97299.00
2022-12-09T22:36:37.073Z,97283.00
2022-12-09T22:39:06.921Z,97238.00
2022-12-09T22:41:35.168Z,97304.00
2022-12-09T22:44:04.778Z,97270.00
2022-12-09T22:46:34.061Z,97300.00
2022-12-09T22:49:03.579Z,97279.00
2022-12-09T22:51:33.032Z,97232.00
2022-12-09T22:54:01.887Z,97282.00
2022-12-09T22:56:31.018Z,97268.00
2022-12-09T22:59:00.177Z,97294.00
2022-12-09T23:01:32.249Z,97291.00
2022-12-09T23:04:01.004Z,97245.00
2022-12-09T23:06:29.912Z,97231.00
2022-12-09T23:08:58.115Z,97286.00
2022-12-09T23:11:27.032Z,97268.00
2022-12-09T23:13:55.364Z,97219.00
2022-12-09T23:16:24.944Z,97285.00
2022-12-09T23:18:55.678Z,97311.00
2022-12-09T23:21:25.663Z,97313.00
2022-12-09T23:23:53.867Z,97306.00
2022-12-09T23:26:22.555Z,97222.00
2022-12-09T23:28:51.668Z,97270.00
2022-12-09T23:31:21.385Z,97256.00
2022-12-09T23:33:50.203Z,97273.00
2022-12-09T23:36:20.502Z,97310.00
2022-12-09T23:38:48.921Z,97287.00
2022-12-09T23:41:18.420Z,97306.00
2022-12-09T23:43:47.127Z,97292.00
2022-12-09T23:46:16.832Z,97294.00
2022-12-09T23:48:45.117Z,97301.00
2022-12-09T23:51:13.702Z,97222.00
2022-12-09T23:53:43.850Z,97291.00
2022-12-09T23:56:12.475Z,97274.00
2022-12-09T23:58:40.733Z,97265.00
